Time;durP1;ratioP1;P1;durP2;ratioP2;P2;SDS_P1;SDS_P2;PMS_P1;PMS_P2;Temp;Humidity;BMP_temperature;BMP_pressure;BME280_temperature;BME280_humidity;BME280_pressure;Samples;Min_cycle;Max_cycle;Signal;HPM_P1;HPM_P2
2021/04/01 00:01:46;;;;;;;;;177.75;160.00;;;;;5.47;74.08;102044.19;5154087;27;8857;-76
2021/04/01 00:04:14;;;;;;;;;172.75;149.75;;;;;5.46;74.04;102043.38;5154842;27;8857;-76
2021/04/01 00:07:11;;;;;;;;;175.50;143.75;;;;;5.45;74.19;102038.97;5153633;27;8834;-76
2021/04/01 00:09:39;;;;;;;;;161.50;142.25;;;;;5.49;73.94;102039.25;5137526;27;8849;-74
2021/04/01 00:12:34;;;;;;;;;159.75;123.00;;;;;5.14;75.53;102035.16;5152482;27;8933;-75
2021/04/01 00:15:06;;;;;;;;;119.25;97.25;;;;;5.19;75.53;102031.63;5154761;27;8825;-75
2021/04/01 00:17:43;;;;;;;;;132.00;125.50;;;;;5.11;75.32;102019.22;5136651;27;8837;-74
2021/04/01 00:20:16;;;;;;;;;147.75;130.25;;;;;5.32;74.09;102028.44;5154022;27;8813;-75
2021/04/01 00:22:57;;;;;;;;;146.00;127.25;;;;;5.13;74.85;102028.00;5153665;27;8849;-76
2021/04/01 00:25:25;;;;;;;;;150.50;132.25;;;;;5.17;74.94;102020.09;5154530;27;8841;-75
2021/04/01 00:28:07;;;;;;;;;175.50;134.25;;;;;5.17;74.69;102020.94;5143153;27;8857;-76
2021/04/01 00:31:02;;;;;;;;;168.75;136.50;;;;;5.16;74.34;102011.03;5153697;27;8874;-76
2021/04/01 00:33:58;;;;;;;;;150.50;129.25;;;;;5.03;74.48;102016.97;5153481;27;8845;-75
2021/04/01 00:36:45;;;;;;;;;164.75;134.00;;;;;5.00;74.56;102015.59;5154735;27;8833;-76
2021/04/01 00:39:12;;;;;;;;;149.50;123.75;;;;;5.07;74.07;102014.53;5138926;27;8874;-76
2021/04/01 00:42:08;;;;;;;;;165.75;129.00;;;;;4.87;74.95;102012.44;5143077;27;8833;-75
2021/04/01 00:45:10;;;;;;;;;99.25;68.00;;;;;4.97;74.46;102009.78;5158206;27;8875;-76
2021/04/01 00:48:06;;;;;;;;;160.75;130.00;;;;;5.01;74.50;102014.50;5158023;27;8833;-75
2021/04/01 00:51:02;;;;;;;;;138.75;127.25;;;;;5.05;74.44;102006.56;5156529;27;9578;-75
2021/04/01 00:54:00;;;;;;;;;135.50;123.25;;;;;5.06;73.52;102000.00;5152838;27;8828;-75
2021/04/01 00:56:56;;;;;;;;;161.25;134.25;;;;;4.91;74.16;102000.69;5156568;27;8874;-77
2021/04/01 00:59:46;;;;;;;;;139.25;132.00;;;;;5.01;74.17;101997.22;5158687;27;8833;-75
2021/04/01 01:02:42;;;;;;;;;139.75;127.75;;;;;4.92;74.43;101998.78;5156070;27;8882;-76
2021/04/01 01:05:24;;;;;;;;;158.25;140.00;;;;;4.73;74.72;101988.19;5157544;27;9649;-76
2021/04/01 01:07:56;;;;;;;;;172.50;140.50;;;;;4.70;75.12;101987.91;5157673;27;8845;-76
2021/04/01 01:10:29;;;;;;;;;174.75;147.75;;;;;4.84;74.46;101980.91;5139325;27;8895;-76
2021/04/01 01:13:05;;;;;;;;;156.00;134.00;;;;;4.74;74.77;101983.53;5157049;27;8938;-75
2021/04/01 01:16:01;;;;;;;;;175.50;145.75;;;;;4.60;74.78;101980.41;5156277;27;8947;-76
2021/04/01 01:18:28;;;;;;;;;154.50;133.50;;;;;4.71;74.76;101982.16;5158408;27;8829;-76
2021/04/01 01:21:15;;;;;;;;;155.50;127.25;;;;;4.84;74.13;101980.91;5142101;27;8848;-75
2021/04/01 01:24:13;;;;;;;;;176.25;153.00;;;;;4.70;74.68;101977.75;5148175;27;8857;-76
2021/04/01 01:27:09;;;;;;;;;175.00;149.00;;;;;4.82;74.04;101977.56;5135094;27;8853;-75
2021/04/01 01:29:37;;;;;;;;;154.50;139.00;;;;;4.58;74.86;101979.00;5136496;27;8823;-75
2021/04/01 01:32:37;;;;;;;;;186.75;161.75;;;;;4.53;74.95;101974.31;5135233;27;8853;-75
2021/04/01 01:35:36;;;;;;;;;196.50;163.25;;;;;4.68;74.92;101965.41;5136284;27;8847;-76
2021/04/01 01:38:06;;;;;;;;;188.75;168.75;;;;;4.60;75.12;101963.13;5123048;27;8853;-76
2021/04/01 01:40:51;;;;;;;;;191.75;167.00;;;;;4.61;75.02;101965.63;5156350;27;8841;-77
2021/04/01 01:43:19;;;;;;;;;197.00;160.50;;;;;4.70;74.23;101963.22;5159015;27;8925;-76
2021/04/01 01:46:01;;;;;;;;;191.50;156.50;;;;;4.55;74.32;101963.09;5156975;27;8837;-76
2021/04/01 01:48:58;;;;;;;;;167.75;143.00;;;;;4.34;75.33;101959.31;5143059;27;8829;-76
2021/04/01 01:51:28;;;;;;;;;176.75;146.50;;;;;4.45;74.39;101955.59;5156346;27;8814;-75
2021/04/01 01:53:56;;;;;;;;;191.75;162.25;;;;;4.43;74.09;101958.59;5130463;27;8847;-76
2021/04/01 01:56:27;;;;;;;;;192.25;162.50;;;;;4.45;74.49;101953.69;5134330;27;8823;-75
2021/04/01 01:58:57;;;;;;;;;198.00;157.50;;;;;4.59;74.33;101954.06;5136705;27;8835;-76
2021/04/01 02:01:25;;;;;;;;;176.50;150.25;;;;;4.50;73.66;101955.63;5118229;27;8867;-75
2021/04/01 02:03:54;;;;;;;;;196.50;163.00;;;;;4.54;73.29;101954.03;5117541;27;8858;-75
2021/04/01 02:06:21;;;;;;;;;172.75;156.25;;;;;4.69;72.26;101954.19;5136800;27;8839;-75
2021/04/01 02:09:04;;;;;;;;;183.75;154.50;;;;;4.65;72.41;101953.03;5120559;27;8847;-75
2021/04/01 02:11:51;;;;;;;;;193.25;168.75;;;;;4.59;72.56;101955.97;5134901;27;8867;-75
2021/04/01 02:14:19;;;;;;;;;162.25;152.00;;;;;4.65;72.15;101944.81;5135329;27;8905;-75
2021/04/01 02:17:21;;;;;;;;;189.50;160.75;;;;;4.68;71.88;101944.31;5122491;27;8863;-77
2021/04/01 02:19:56;;;;;;;;;188.75;149.25;;;;;4.60;72.27;101944.78;5135574;27;8831;-75
2021/04/01 02:22:24;;;;;;;;;169.25;135.00;;;;;4.60;72.40;101939.31;5136014;27;8847;-75
2021/04/01 02:25:20;;;;;;;;;191.25;164.25;;;;;4.33;74.05;101938.50;5134412;27;8998;-77
2021/04/01 02:28:17;;;;;;;;;174.50;155.75;;;;;4.30;73.88;101934.38;5145974;27;8832;-75
2021/04/01 02:31:19;;;;;;;;;140.75;127.50;;;;;4.23;74.19;101932.91;5135294;27;8808;-75
2021/04/01 02:33:55;;;;;;;;;164.50;145.25;;;;;4.45;73.74;101937.25;5117693;27;9025;-74
2021/04/01 02:36:22;;;;;;;;;153.00;144.50;;;;;4.36;74.45;101921.53;5142763;27;8841;-75
2021/04/01 02:39:04;;;;;;;;;188.50;151.25;;;;;4.26;74.74;101924.16;5136906;27;8843;-76
2021/04/01 02:41:33;;;;;;;;;197.25;153.50;;;;;4.28;74.99;101932.94;5134574;27;9572;-75
2021/04/01 02:44:09;;;;;;;;;195.75;159.50;;;;;4.26;74.82;101925.00;5134576;27;8879;-75
2021/04/01 02:47:05;;;;;;;;;209.75;159.25;;;;;4.16;74.89;101933.94;5143314;27;8843;-75
2021/04/01 02:49:51;;;;;;;;;194.50;159.75;;;;;4.01;75.41;101928.31;5134785;27;8866;-76
2021/04/01 02:52:18;;;;;;;;;195.25;157.25;;;;;4.03;75.59;101928.03;5134583;27;9663;-76
2021/04/01 02:54:46;;;;;;;;;187.00;156.75;;;;;4.09;75.28;101929.75;5134535;27;8846;-76
2021/04/01 02:57:15;;;;;;;;;169.25;150.75;;;;;3.98;74.99;101931.53;5134255;27;8834;-76
2021/04/01 02:59:57;;;;;;;;;198.00;162.00;;;;;3.80;75.83;101929.13;5134837;27;8885;-76
2021/04/01 03:02:27;;;;;;;;;178.00;151.50;;;;;3.79;75.84;101930.22;5133719;27;8931;-76
2021/04/01 03:05:06;;;;;;;;;197.50;150.25;;;;;3.96;75.54;101930.97;5117395;27;8853;-75
2021/04/01 03:07:38;;;;;;;;;192.25;157.00;;;;;4.08;74.94;101926.19;5134156;27;8835;-75
2021/04/01 03:10:11;;;;;;;;;180.50;162.50;;;;;4.13;75.08;101930.88;5134023;27;9749;-75
2021/04/01 03:12:40;;;;;;;;;188.50;146.00;;;;;3.98;75.75;101925.22;5116870;27;8819;-76
2021/04/01 03:15:15;;;;;;;;;195.75;169.25;;;;;3.86;75.98;101923.47;5135466;27;8890;-77
2021/04/01 03:18:11;;;;;;;;;184.50;138.00;;;;;3.89;76.06;101916.66;5143136;27;8827;-76
2021/04/01 03:20:58;;;;;;;;;193.00;158.25;;;;;4.05;76.17;101920.38;5145073;27;8848;-75
2021/04/01 03:23:28;;;;;;;;;188.50;153.00;;;;;4.15;75.10;101915.03;5154934;27;8828;-76
2021/04/01 03:26:24;;;;;;;;;196.00;155.50;;;;;4.00;75.93;101923.09;5154176;27;8944;-76
2021/04/01 03:29:20;;;;;;;;;179.25;143.50;;;;;3.92;76.76;101920.81;5141379;27;8817;-76
2021/04/01 03:31:48;;;;;;;;;180.00;157.25;;;;;3.86;76.46;101915.25;5142822;27;8847;-75
2021/04/01 03:34:15;;;;;;;;;203.25;161.75;;;;;3.81;77.04;101912.47;5134468;27;8851;-76
2021/04/01 03:36:57;;;;;;;;;200.25;161.50;;;;;3.88;76.59;101915.81;5134982;27;8839;-76
2021/04/01 03:39:40;;;;;;;;;191.25;157.25;;;;;3.92;76.44;101912.59;5133205;27;8846;-76
2021/04/01 03:42:24;;;;;;;;;180.25;143.75;;;;;4.02;76.67;101907.22;5133447;27;9658;-76
2021/04/01 03:45:20;;;;;;;;;188.75;162.25;;;;;4.03;76.29;101912.44;5150602;27;8845;-76
2021/04/01 03:47:52;;;;;;;;;188.25;155.50;;;;;4.18;76.46;101917.25;5154492;27;8837;-77
2021/04/01 03:50:43;;;;;;;;;175.25;148.00;;;;;4.42;75.79;101915.00;5136746;27;8837;-77
2021/04/01 03:53:38;;;;;;;;;143.50;123.25;;;;;4.22;77.14;101912.94;5134490;27;8858;-76
2021/04/01 03:56:06;;;;;;;;;128.00;113.50;;;;;4.21;77.32;101904.94;5151528;27;8825;-76
2021/04/01 04:01:36;;;;;;;;;139.50;120.25;;;;;4.22;77.97;101907.44;5135844;27;8909;-75
2021/04/01 04:04:24;;;;;;;;;138.25;124.50;;;;;4.41;77.55;101908.72;5154052;27;8825;-76
2021/04/01 04:10:11;;;;;;;;;135.25;121.25;;;;;4.45;77.53;101901.63;5137641;27;8862;-76
2021/04/01 04:15:26;;;;;;;;;146.25;122.25;;;;;4.52;77.95;101898.66;5096066;27;8894;-76
2021/04/01 04:18:21;;;;;;;;;139.50;119.00;;;;;4.31;78.10;101899.59;5137700;27;8856;-76
2021/04/01 04:21:13;;;;;;;;;139.25;122.25;;;;;4.38;78.33;101900.19;5137794;27;8827;-77
2021/04/01 04:23:45;;;;;;;;;155.50;136.00;;;;;4.46;78.32;101888.78;5137358;27;9618;-77
2021/04/01 04:26:14;;;;;;;;;160.75;131.75;;;;;4.42;78.78;101895.84;5144128;27;8835;-78
2021/04/01 04:28:42;;;;;;;;;135.25;117.50;;;;;4.49;78.82;101890.16;5139335;27;8847;-77
2021/04/01 04:31:39;;;;;;;;;155.50;131.00;;;;;4.62;78.46;101896.03;5124651;27;8961;-78
2021/04/01 04:34:07;;;;;;;;;133.25;121.50;;;;;4.64;78.49;101891.09;5129935;27;8847;-77
2021/04/01 04:37:04;;;;;;;;;123.50;111.00;;;;;4.90;77.97;101891.28;5123294;27;8835;-78
2021/04/01 04:39:32;;;;;;;;;115.00;108.00;;;;;4.99;77.65;101887.81;5118710;27;8823;-77
2021/04/01 04:42:21;;;;;;;;;127.75;109.00;;;;;5.02;77.48;101884.53;5137742;27;8858;-75
2021/04/01 04:44:49;;;;;;;;;139.25;120.25;;;;;5.07;77.80;101889.22;5124306;27;8842;-75
2021/04/01 04:47:20;;;;;;;;;131.00;118.75;;;;;5.08;78.19;101882.66;5157498;27;8867;-76
2021/04/01 04:49:48;;;;;;;;;172.25;155.50;;;;;5.26;78.02;101884.94;5150690;27;9400;-76
2021/04/01 04:52:17;;;;;;;;;150.25;131.00;;;;;5.41;77.58;101878.69;5144288;27;8860;-74
2021/04/01 04:54:45;;;;;;;;;133.50;121.00;;;;;5.52;77.21;101882.28;5157279;27;8956;-76
2021/04/01 04:57:50;;;;;;;;;147.25;129.25;;;;;5.66;76.51;101879.88;5157020;27;8853;-76
2021/04/01 05:09:13;;;;;;;;;139.00;128.75;;;;;6.25;75.02;101879.53;5133486;27;8925;-77
2021/04/01 05:11:55;;;;;;;;;139.00;123.25;;;;;6.38;74.58;101871.56;5157302;27;8873;-76
2021/04/01 05:14:24;;;;;;;;;137.50;117.00;;;;;6.52;74.12;101871.03;5156677;27;8841;-76
2021/04/01 05:16:52;;;;;;;;;124.75;105.50;;;;;6.64;74.23;101874.31;5158221;27;8845;-75
2021/04/01 05:19:20;;;;;;;;;128.75;112.50;;;;;6.87;73.69;101868.25;5138710;27;9566;-78
2021/04/01 05:24:51;;;;;;;;;118.33;107.33;;;;;7.33;72.36;101873.66;5142458;27;8857;-77
2021/04/01 05:27:43;;;;;;;;;129.67;108.00;;;;;7.50;72.08;101868.63;5129708;27;8865;-76
2021/04/01 05:30:33;;;;;;;;;126.33;112.67;;;;;7.86;71.20;101873.97;5135925;27;8829;-77
2021/04/01 05:33:06;;;;;;;;;118.67;103.33;;;;;8.10;70.34;101868.59;5129750;27;8851;-75
2021/04/01 05:35:35;;;;;;;;;122.00;102.33;;;;;8.24;69.63;101871.53;5144949;27;8827;-76
2021/04/01 05:38:32;;;;;;;;;123.33;107.33;;;;;8.54;69.07;101870.50;5135061;27;9580;-76
2021/04/01 05:41:02;;;;;;;;;111.00;99.33;;;;;8.73;68.64;101878.88;5149780;27;8829;-77
2021/04/01 05:43:37;;;;;;;;;107.67;97.33;;;;;8.94;67.77;101874.81;5143954;27;8837;-76
2021/04/01 05:46:51;;;;;;;;;101.00;86.33;;;;;9.12;67.45;101870.50;5134750;27;8925;-77
2021/04/01 05:49:42;;;;;;;;;96.00;84.33;;;;;9.33;66.98;101876.63;5146645;27;8845;-77
2021/04/01 06:04:27;;;;;;;;;65.25;52.00;;;;;10.01;64.63;101865.25;5107794;27;11526;-78
2021/04/01 06:07:07;;;;;;;;;60.25;49.25;;;;;10.24;63.90;101863.53;5145544;27;11520;-78
2021/04/01 06:09:50;;;;;;;;;48.00;43.00;;;;;10.52;63.42;101870.03;5146679;27;11564;-78
2021/04/01 06:12:17;;;;;;;;;57.50;49.50;;;;;10.65;62.90;101865.63;5147964;27;11497;-77
2021/04/01 06:15:04;;;;;;;;;60.75;49.75;;;;;10.90;62.58;101858.84;5139553;27;11540;-76
2021/04/01 06:17:33;;;;;;;;;63.25;52.75;;;;;10.93;62.00;101861.00;5135040;27;11507;-77
2021/04/01 06:20:07;;;;;;;;;61.25;51.00;;;;;11.21;61.53;101865.47;5116955;27;11540;-77
2021/04/01 06:22:39;;;;;;;;;56.75;48.25;;;;;11.43;61.95;101866.72;5169001;27;11553;-75
2021/04/01 06:25:14;;;;;;;;;52.00;44.50;;;;;11.55;61.04;101867.00;5154429;27;11516;-75
2021/04/01 06:27:53;;;;;;;;;57.00;49.00;;;;;11.55;60.95;101867.00;5146982;27;11552;-74
2021/04/01 06:30:56;;;;;;;;;79.75;63.75;;;;;12.16;63.09;101860.13;5143351;27;11491;-74
2021/04/01 06:33:46;;;;;;;;;58.50;49.50;;;;;12.25;60.11;101855.47;5119691;27;11532;-75
2021/04/01 06:36:23;;;;;;;;;54.00;46.50;;;;;12.36;58.82;101856.06;5155365;27;11509;-74
2021/04/01 06:38:52;;;;;;;;;62.75;51.25;;;;;12.53;58.66;101859.78;5155431;27;11473;-74
2021/04/01 06:41:33;;;;;;;;;51.00;42.00;;;;;12.70;57.71;101856.28;5151738;27;11437;-75
2021/04/01 06:44:30;;;;;;;;;65.25;52.25;;;;;13.12;57.98;101856.03;5158981;27;11537;-73
2021/04/01 06:47:11;;;;;;;;;64.50;53.25;;;;;12.99;59.54;101847.47;5142210;27;11470;-75
2021/04/01 06:52:48;;;;;;;;;69.25;55.50;;;;;13.47;56.65;101845.88;5133777;27;11531;-74
2021/04/01 06:55:47;;;;;;;;;62.00;49.75;;;;;13.63;56.88;101845.13;5136542;27;11508;-74
2021/04/01 07:01:43;;;;;;;;;48.50;41.00;;;;;13.39;54.77;101839.16;5147140;27;11463;-77
2021/04/01 07:04:13;;;;;;;;;54.00;45.00;;;;;13.74;54.16;101844.81;5148129;27;11013;-78
2021/04/01 07:07:17;;;;;;;;;40.75;36.00;;;;;14.25;54.13;101834.88;5133236;27;11460;-79
2021/04/01 07:12:36;;;;;;;;;49.50;42.75;;;;;14.26;53.13;101828.16;5134861;27;11470;-76
2021/04/01 07:15:11;;;;;;;;;45.50;39.50;;;;;14.55;53.01;101821.94;5134293;27;11103;-79
2021/04/01 07:18:01;;;;;;;;;39.00;36.00;;;;;14.62;51.29;101820.28;5147549;27;10635;-77
2021/04/01 07:21:29;;;;;;;;;26.75;26.50;;;;;15.01;50.06;101821.97;5150370;27;10320;-78
2021/04/01 07:48:11;;;;;;;;;22.33;21.67;;;;;16.15;45.12;101788.63;5142417;27;9476;-81
2021/04/01 07:51:31;;;;;;;;;17.67;17.67;;;;;16.32;44.40;101797.66;5141453;27;9175;-79
2021/04/01 07:54:00;;;;;;;;;30.00;25.67;;;;;16.67;43.30;101784.16;5124304;27;9025;-80
2021/04/01 07:57:14;;;;;;;;;19.00;19.00;;;;;16.89;43.11;101782.94;5122638;27;9086;-78
2021/04/01 08:06:22;;;;;;;;;17.67;17.67;;;;;16.70;43.37;101768.69;5138175;27;9073;-79
2021/04/01 08:09:22;;;;;;;;;24.67;22.67;;;;;16.60;43.52;101764.34;5138134;27;8993;-77
2021/04/01 08:12:29;;;;;;;;;23.67;20.33;;;;;17.02;42.70;101764.19;5140863;27;8972;-77
2021/04/01 08:15:26;;;;;;;;;17.25;17.25;;;;;17.39;41.87;101755.78;5137458;27;9104;-78
2021/04/01 08:18:06;;;;;;;;;18.00;18.00;;;;;17.32;41.57;101752.78;5145947;27;8833;-78
2021/04/01 08:20:45;;;;;;;;;35.00;29.00;;;;;17.68;41.37;101749.09;5151332;27;8815;-77
2021/04/01 08:23:31;;;;;;;;;15.75;15.75;;;;;17.84;41.42;101749.19;5121868;27;8970;-76
2021/04/01 08:33:07;;;;;;;;;20.50;20.50;;;;;18.66;39.37;101723.50;5126690;27;9623;-76
2021/04/01 08:36:01;;;;;;;;;19.50;19.50;;;;;17.88;40.83;101716.56;5146533;27;8839;-76
2021/04/01 08:38:58;;;;;;;;;28.50;28.50;;;;;18.58;49.70;101709.28;5136034;27;8835;-76
2021/04/01 08:42:06;;;;;;;;;16.75;16.75;;;;;18.97;46.92;101714.25;5140347;27;8836;-75
2021/04/01 08:48:23;;;;;;;;;16.25;16.25;;;;;19.47;37.64;101704.19;5145572;27;8857;-76
2021/04/01 08:51:06;;;;;;;;;23.25;22.75;;;;;19.49;42.79;101694.25;5148664;27;8923;-77
2021/04/01 08:54:29;;;;;;;;;34.75;32.75;;;;;19.74;41.71;101689.19;5125720;27;8835;-77
2021/04/01 08:57:08;;;;;;;;;26.75;25.50;;;;;19.74;42.52;101685.56;5101789;27;8929;-74
2021/04/01 09:00:11;;;;;;;;;22.50;22.50;;;;;19.42;37.68;101689.28;5146946;27;8845;-74
2021/04/01 09:03:36;;;;;;;;;25.00;25.00;;;;;20.06;45.72;101686.19;5136635;27;8834;-74
2021/04/01 09:06:06;;;;;;;;;19.50;19.50;;;;;19.75;37.41;101675.97;5144721;27;9012;-74
2021/04/01 09:08:38;;;;;;;;;19.75;19.75;;;;;20.12;35.55;101676.31;5147711;27;9005;-74
2021/04/01 09:11:42;;;;;;;;;22.25;20.75;;;;;19.87;36.62;101667.41;5132696;27;8839;-75
2021/04/01 09:14:22;;;;;;;;;15.00;15.00;;;;;19.75;35.66;101662.75;5145539;27;8847;-77
2021/04/01 09:17:15;;;;;;;;;19.75;19.75;;;;;20.16;35.54;101655.50;5145961;27;8836;-76
2021/04/01 09:20:21;;;;;;;;;33.50;29.25;;;;;20.04;34.43;101661.31;5134930;27;8825;-73
2021/04/01 09:23:19;;;;;;;;;21.50;21.25;;;;;20.38;34.83;101653.09;5137067;27;8854;-73
2021/04/01 09:26:26;;;;;;;;;19.25;19.25;;;;;20.18;34.92;101641.91;5131879;27;8887;-75
2021/04/01 09:29:22;;;;;;;;;18.75;18.75;;;;;20.35;35.04;101643.41;5144329;27;8831;-74
2021/04/01 09:32:02;;;;;;;;;22.50;22.25;;;;;20.12;34.74;101645.41;5139698;27;8824;-75
2021/04/01 09:34:32;;;;;;;;;15.75;15.75;;;;;20.49;33.75;101640.06;5145890;27;8964;-74
2021/04/01 09:37:28;;;;;;;;;18.25;18.25;;;;;21.21;34.13;101628.72;5143186;27;8946;-73
2021/04/01 09:40:07;;;;;;;;;11.50;11.50;;;;;21.04;32.74;101616.03;5144617;27;8839;-75
2021/04/01 09:42:42;;;;;;;;;14.50;14.50;;;;;20.53;33.08;101613.63;5143861;27;8817;-73
2021/04/01 09:45:32;;;;;;;;;13.00;13.00;;;;;21.00;32.06;101612.34;5132141;27;8833;-72
2021/04/01 09:48:31;;;;;;;;;15.25;15.25;;;;;21.03;31.82;101602.34;5145480;27;8809;-74
2021/04/01 09:51:30;;;;;;;;;12.25;12.25;;;;;21.27;31.58;101612.31;5130368;27;8839;-74
2021/04/01 09:54:00;;;;;;;;;20.25;19.00;;;;;21.73;29.27;101607.28;5112812;27;8858;-73
2021/04/01 09:56:30;;;;;;;;;21.50;20.00;;;;;22.01;28.25;101603.97;5144288;27;8908;-73
2021/04/01 09:59:19;;;;;;;;;9.00;9.00;;;;;21.54;28.76;101599.81;5141088;27;9566;-72
2021/04/01 10:02:24;;;;;;;;;7.00;7.00;;;;;21.60;28.85;101587.03;5145376;27;8820;-74
2021/04/01 10:05:04;;;;;;;;;11.75;11.75;;;;;21.65;30.12;101586.69;5143832;27;8907;-72
2021/04/01 10:07:56;;;;;;;;;21.25;20.00;;;;;22.07;28.94;101584.69;5124888;27;8930;-73
2021/04/01 10:10:36;;;;;;;;;16.50;16.50;;;;;21.98;28.54;101582.19;5126891;27;8831;-73
2021/04/01 10:13:30;;;;;;;;;11.50;11.50;;;;;21.85;28.08;101580.84;5143368;27;8805;-73
2021/04/01 10:15:59;;;;;;;;;9.25;9.25;;;;;21.78;28.25;101581.59;5145309;27;8843;-73
2021/04/01 10:18:41;;;;;;;;;10.50;10.50;;;;;21.61;29.43;101574.56;5140782;27;8850;-73
2021/04/01 10:21:13;;;;;;;;;10.00;10.00;;;;;21.84;29.48;101570.78;5135400;27;8843;-72
2021/04/01 10:23:46;;;;;;;;;12.00;12.00;;;;;21.70;28.16;101563.03;5134339;27;9660;-73
2021/04/01 10:26:45;;;;;;;;;10.60;10.60;;;;;22.02;27.68;101562.53;5134898;27;8843;-73
2021/04/01 10:29:29;;;;;;;;;11.00;11.00;;;;;22.23;27.83;101559.91;5135796;27;8839;-73
2021/04/01 10:32:45;;;;;;;;;9.75;9.25;;;;;22.15;27.13;101556.22;5145725;27;8841;-74
2021/04/01 10:35:46;;;;;;;;;10.80;10.80;;;;;22.10;28.23;101550.97;5140156;27;8863;-74
2021/04/01 10:38:14;;;;;;;;;32.00;28.00;;;;;22.56;28.48;101544.06;5148897;27;8838;-74
2021/04/01 10:40:48;;;;;;;;;17.00;16.25;;;;;22.60;28.07;101553.34;5147206;27;8807;-74
2021/04/01 10:43:23;;;;;;;;;9.80;9.80;;;;;22.06;28.12;101540.81;5145341;27;8958;-74
2021/04/01 10:45:53;;;;;;;;;9.50;9.50;;;;;22.31;28.53;101527.75;5143775;27;8891;-73
2021/04/01 10:48:36;;;;;;;;;26.75;26.50;;;;;22.71;27.13;101523.22;5146580;27;8831;-73
2021/04/01 10:51:34;;;;;;;;;15.25;14.50;;;;;22.59;27.85;101517.91;5141247;27;8829;-72
2021/04/01 10:54:42;;;;;;;;;9.20;9.20;;;;;23.01;27.09;101515.34;5130330;27;8824;-73
2021/04/01 10:57:40;;;;;;;;;9.80;9.80;;;;;23.24;26.76;101519.88;5131668;27;8927;-72
2021/04/01 11:00:37;;;;;;;;;11.00;10.00;;;;;23.32;25.80;101512.22;5142736;27;8825;-73
2021/04/01 11:03:54;;;;;;;;;10.60;8.80;;;;;23.53;25.06;101510.25;5145769;27;8873;-73
2021/04/01 11:06:28;;;;;;;;;7.80;7.80;;;;;23.56;24.95;101503.81;5124490;27;9691;-72
2021/04/01 11:08:59;;;;;;;;;9.40;9.40;;;;;23.62;25.20;101500.59;5144915;27;8831;-72
2021/04/01 11:12:14;;;;;;;;;9.60;8.80;;;;;23.52;25.49;101496.53;5146493;27;8974;-72
2021/04/01 11:14:45;;;;;;;;;13.60;13.60;;;;;22.43;25.93;101487.19;5146473;27;8829;-72
2021/04/01 11:17:46;;;;;;;;;11.60;11.60;;;;;22.04;26.49;101493.31;5145232;27;8837;-73
2021/04/01 11:20:48;;;;;;;;;22.25;20.75;;;;;22.43;26.92;101475.91;5134126;27;8942;-73
2021/04/01 11:23:44;;;;;;;;;10.60;10.20;;;;;22.89;26.25;101478.22;5142907;27;8825;-73
2021/04/01 11:26:40;;;;;;;;;9.00;8.80;;;;;23.59;25.53;101468.31;5141550;27;8885;-73
2021/04/01 11:29:30;;;;;;;;;8.60;8.60;;;;;23.79;24.98;101460.31;5145592;27;8818;-73
2021/04/01 11:32:31;;;;;;;;;9.20;9.20;;;;;23.89;24.61;101461.50;5144225;27;8904;-73
2021/04/01 11:35:04;;;;;;;;;9.80;9.80;;;;;24.34;24.16;101455.03;5100156;27;8875;-72
2021/04/01 11:37:34;;;;;;;;;14.20;12.40;;;;;24.33;24.25;101456.25;5143016;27;8841;-74
2021/04/01 11:40:07;;;;;;;;;9.80;9.80;;;;;24.48;23.65;101439.25;5147650;27;8821;-72
2021/04/01 11:42:35;;;;;;;;;10.20;10.20;;;;;24.68;23.69;101443.19;5132954;27;8833;-73
2021/04/01 11:45:37;;;;;;;;;10.00;10.00;;;;;24.50;23.89;101431.16;5130643;27;8849;-73
2021/04/01 11:48:07;;;;;;;;;16.40;15.00;;;;;24.21;24.73;101441.69;5144494;27;8850;-73
2021/04/01 11:50:51;;;;;;;;;10.00;9.20;;;;;24.50;23.84;101426.31;5139347;27;8913;-72
2021/04/01 11:53:47;;;;;;;;;9.80;9.80;;;;;24.84;23.51;101420.91;5143938;27;8819;-73
2021/04/01 11:56:41;;;;;;;;;10.20;10.20;;;;;24.90;23.10;101415.63;5141351;27;8850;-72
2021/04/01 11:59:14;;;;;;;;;9.00;9.00;;;;;24.82;22.70;101417.69;5125514;27;8870;-73
2021/04/01 12:02:00;;;;;;;;;7.80;7.80;;;;;25.14;23.03;101413.91;5133513;27;8870;-72
2021/04/01 12:04:58;;;;;;;;;9.80;9.80;;;;;25.20;22.45;101415.09;5143298;27;8863;-72
2021/04/01 12:07:30;;;;;;;;;9.40;9.40;;;;;24.68;23.43;101400.78;5125400;27;9529;-72
2021/04/01 12:09:59;;;;;;;;;12.20;12.20;;;;;25.29;23.88;101398.44;5142652;27;8820;-71
2021/04/01 12:12:40;;;;;;;;;9.20;9.20;;;;;24.36;23.49;101393.22;5127612;27;8837;-71
2021/04/01 12:15:12;;;;;;;;;8.20;8.20;;;;;24.68;23.50;101393.09;5126235;27;8829;-75
2021/04/01 12:17:45;;;;;;;;;7.80;7.80;;;;;24.54;23.65;101389.56;5126878;27;8851;-75
2021/04/01 12:20:14;;;;;;;;;7.00;7.00;;;;;24.87;22.92;101388.19;5124326;27;8815;-75
2021/04/01 12:22:44;;;;;;;;;12.00;11.60;;;;;24.60;22.96;101385.06;5123418;27;8819;-76
2021/04/01 12:25:15;;;;;;;;;19.80;13.80;;;;;25.14;23.11;101375.09;5140896;27;8839;-72
2021/04/01 12:27:54;;;;;;;;;15.00;13.40;;;;;25.39;22.96;101369.25;5123579;27;8829;-74
2021/04/01 12:30:35;;;;;;;;;7.80;7.80;;;;;24.74;22.74;101365.19;5143726;27;8808;-73
2021/04/01 12:33:24;;;;;;;;;11.00;11.00;;;;;25.02;23.77;101361.41;5124942;27;8839;-73
2021/04/01 12:36:01;;;;;;;;;12.00;12.00;;;;;25.44;22.84;101365.97;5146624;27;8833;-74
2021/04/01 12:38:52;;;;;;;;;10.80;10.80;;;;;25.93;21.96;101360.31;5128890;27;8851;-73
2021/04/01 12:41:24;;;;;;;;;7.60;7.60;;;;;26.42;20.70;101349.66;5146293;27;8853;-74
2021/04/01 12:44:19;;;;;;;;;12.00;12.00;;;;;26.46;20.72;101356.09;5143314;27;8940;-75
2021/04/01 12:47:28;;;;;;;;;9.80;9.80;;;;;24.63;22.15;101351.13;5133153;27;8832;-72
2021/04/01 12:50:33;;;;;;;;;8.00;8.00;;;;;25.40;22.60;101342.56;5142341;27;8827;-72
2021/04/01 12:53:01;;;;;;;;;20.80;15.60;;;;;25.76;22.77;101348.72;5146194;27;8825;-74
2021/04/01 12:56:06;;;;;;;;;10.00;10.00;;;;;24.91;22.33;101336.00;5147583;27;9545;-74
2021/04/01 12:58:56;;;;;;;;;8.80;8.80;;;;;25.09;22.14;101330.25;5136066;27;8817;-72
2021/04/01 13:03:59;;;;;;;;;9.40;9.40;;;;;26.14;21.24;101322.41;5147979;27;9587;-75
2021/04/01 13:06:44;;;;;;;;;8.80;8.80;;;;;25.72;21.19;101325.28;5111121;27;8837;-73
2021/04/01 13:12:13;;;;;;;;;6.40;6.40;;;;;25.39;21.80;101315.47;5145252;27;8843;-74
2021/04/01 13:14:42;;;;;;;;;8.40;8.40;;;;;25.65;21.23;101308.34;5146598;27;8890;-72
2021/04/01 13:17:28;;;;;;;;;9.80;8.60;;;;;24.78;22.37;101306.59;5148253;27;8834;-74
2021/04/01 13:20:27;;;;;;;;;7.40;7.40;;;;;25.72;21.37;101296.97;5144843;27;8838;-74
2021/04/01 13:23:10;;;;;;;;;13.00;13.00;;;;;25.00;21.88;101295.09;5147268;27;8861;-73
2021/04/01 13:25:40;;;;;;;;;10.80;10.80;;;;;25.76;21.20;101289.25;5144446;27;8826;-75
2021/04/01 13:28:08;;;;;;;;;10.00;10.00;;;;;25.76;21.36;101280.75;5146004;27;8835;-75
2021/04/01 13:30:45;;;;;;;;;10.20;10.20;;;;;25.36;21.90;101285.13;5128491;27;8868;-74
2021/04/01 13:33:21;;;;;;;;;15.00;15.00;;;;;26.02;20.69;101282.06;5128778;27;8831;-76
2021/04/01 13:36:01;;;;;;;;;10.80;10.80;;;;;25.87;20.95;101268.47;5147362;27;8893;-75
2021/04/01 13:38:38;;;;;;;;;9.00;9.00;;;;;25.65;21.42;101268.69;5143693;27;9682;-75
2021/04/01 13:41:38;;;;;;;;;15.80;14.80;;;;;25.15;21.60;101266.34;5126992;27;8865;-73
2021/04/01 13:44:33;;;;;;;;;9.20;8.20;;;;;24.88;21.66;101262.47;5140332;27;8821;-75
2021/04/01 13:47:31;;;;;;;;;10.60;10.00;;;;;25.55;21.28;101263.13;5144398;27;8912;-75
2021/04/01 13:50:29;;;;;;;;;6.40;6.40;;;;;25.19;22.18;101249.31;5144146;27;8869;-76
2021/04/01 13:53:30;;;;;;;;;12.80;12.40;;;;;25.43;21.62;101250.28;5146220;27;8936;-74
2021/04/01 13:56:31;;;;;;;;;15.20;14.20;;;;;24.56;23.76;101240.06;5147292;27;8817;-73
2021/04/01 14:10:35;;;;;;;;;19.00;17.00;;;;;25.02;22.17;101227.63;5145095;27;8832;-73